Flugplatz Osnabrück-Atterheide

Für EDWO sind keine METAR/TAF Berichte vorhanden.
Es werden die Flugwettermeldungen vom Flugplatz Münster Osnabrück in 25 km Entfernung angezeigt.

Bericht für EDDG

vom 14.11. um 11:20 UTC

Wind 7 kt aus 110°

Sichtweite 10 km oder mehr

gute Sicht, keine Wolken < 5000 ft, keine CB, keine Wettererscheinungen (CAVOK)

Temperatur 7.0°C

Taupunkt 2.0°C

Luftfeuchtigkeit 70%

Luftdruck 1003 hPa

keine wesentliche Wetteränderung innerhalb den nächsten 2 Stunden zu erwarten

EDDG 141120Z 11007KT 050V180 CAVOK 07/02 Q1003 NOSIG

Prognose für EDDG

vom 14.11. um 00:00 UTC

Zwischen 00:00 UTC und 00:00 UTC

Wind 7 kt aus 120°

Sichtweite 10 km oder mehr

keine signifikanten Wettererscheinungen

keine Wolken


Zwischen 00:00 und 00:00 UTC übergehend zu

Wind 6 kt aus 60°

Sichtweite 10 km oder mehr

keine signifikanten Wettererscheinungen

keine Wolken

TAF EDDG 140500Z 1406/1506 12007KT CAVOK BECMG 1418/1421 06006KT
Impressum